Time;durP1;ratioP1;P1;durP2;ratioP2;P2;SDS_P1;SDS_P2;PMS_P1;PMS_P2;Temp;Humidity;BMP_temperature;BMP_pressure;BME280_temperature;BME280_humidity;BME280_pressure;Samples;Min_cycle;Max_cycle;Signal;HPM_P1;HPM_P2
2021/12/28 05:01:15;;;;;;;28.48;15.32;;;2.10;99.90;;;;;;5531993;23;20313;-68
2021/12/28 05:03:41;;;;;;;23.88;17.13;;;2.10;99.90;;;;;;4923747;29;20204;-67
2021/12/28 05:06:08;;;;;;;30.13;17.73;;;2.10;99.90;;;;;;4914953;29;20540;-67
2021/12/28 05:08:35;;;;;;;27.20;17.95;;;2.10;99.90;;;;;;4920861;29;20198;-70
2021/12/28 05:11:02;;;;;;;35.83;19.00;;;2.10;99.90;;;;;;4931303;29;20687;-67
2021/12/28 05:13:28;;;;;;;26.67;17.60;;;2.10;99.90;;;;;;4922910;29;20616;-68
2021/12/28 05:15:55;;;;;;;23.95;15.00;;;2.10;99.90;;;;;;4896649;29;20255;-69
2021/12/28 05:18:23;;;;;;;31.77;17.95;;;2.10;99.90;;;;;;4895748;29;20649;-69
2021/12/28 05:20:50;;;;;;;24.30;17.70;;;2.10;99.90;;;;;;4897809;29;20242;-68
2021/12/28 05:23:16;;;;;;;27.70;19.17;;;2.10;99.90;;;;;;4911527;29;20680;-69
2021/12/28 05:25:44;;;;;;;28.20;18.25;;;2.10;99.90;;;;;;4896808;29;20263;-68
2021/12/28 05:28:10;;;;;;;27.63;17.08;;;2.10;99.90;;;;;;4913815;29;20258;-68
2021/12/28 05:30:38;;;;;;;17.77;11.82;;;2.10;99.90;;;;;;4912346;29;20230;-68
2021/12/28 05:33:06;;;;;;;33.10;18.08;;;2.10;99.90;;;;;;4903471;29;20254;-68
2021/12/28 05:35:34;;;;;;;24.55;15.63;;;2.10;99.90;;;;;;4914444;29;20207;-68
2021/12/28 05:38:01;;;;;;;27.65;17.13;;;2.10;99.90;;;;;;4897082;29;20234;-68
2021/12/28 05:40:28;;;;;;;30.73;18.38;;;2.20;99.90;;;;;;4908498;29;20255;-68
2021/12/28 05:42:55;;;;;;;19.90;12.48;;;2.20;99.90;;;;;;4895430;29;20211;-68
2021/12/28 05:45:21;;;;;;;14.82;12.32;;;2.20;99.90;;;;;;4913643;29;20676;-68
2021/12/28 05:47:48;;;;;;;32.88;17.83;;;2.20;99.90;;;;;;4913352;29;20209;-68
2021/12/28 05:50:15;;;;;;;25.77;17.20;;;2.10;99.90;;;;;;4896786;29;20207;-68
2021/12/28 05:52:43;;;;;;;24.85;16.48;;;2.20;99.90;;;;;;4894836;29;20207;-68
2021/12/28 05:55:10;;;;;;;23.33;15.13;;;2.20;99.90;;;;;;4911003;29;20210;-68
2021/12/28 05:57:37;;;;;;;29.70;18.42;;;2.20;99.90;;;;;;4912457;29;20226;-68
2021/12/28 06:00:06;;;;;;;24.15;17.48;;;2.20;99.90;;;;;;4906974;29;20290;-68
2021/12/28 06:02:33;;;;;;;28.33;17.58;;;2.20;99.90;;;;;;4912815;29;20273;-67
2021/12/28 06:05:00;;;;;;;25.27;16.80;;;2.20;99.90;;;;;;4912728;29;20258;-68
2021/12/28 06:07:27;;;;;;;27.77;17.63;;;2.20;99.90;;;;;;4924136;29;20257;-68
2021/12/28 06:09:56;;;;;;;27.05;16.25;;;2.20;99.90;;;;;;4919275;29;20293;-70
2021/12/28 06:12:23;;;;;;;26.70;17.13;;;2.20;99.90;;;;;;4912784;29;20226;-68
2021/12/28 06:14:50;;;;;;;27.13;17.40;;;2.20;99.90;;;;;;4902486;29;20214;-67
2021/12/28 06:17:18;;;;;;;23.40;15.82;;;2.20;99.90;;;;;;4895155;29;20234;-69
2021/12/28 06:19:44;;;;;;;26.08;18.00;;;2.20;99.90;;;;;;4904738;29;20679;-67
2021/12/28 06:22:11;;;;;;;26.55;16.25;;;2.30;99.90;;;;;;4913384;29;20302;-69
2021/12/28 06:24:38;;;;;;;26.08;17.63;;;2.30;99.90;;;;;;4904855;29;20222;-70
2021/12/28 06:27:06;;;;;;;27.92;16.20;;;2.20;99.90;;;;;;4905739;29;20217;-70
2021/12/28 06:29:33;;;;;;;27.65;17.17;;;2.20;99.90;;;;;;4909515;29;20628;-69
2021/12/28 06:32:00;;;;;;;25.35;16.42;;;2.20;99.90;;;;;;4912844;29;20301;-68
2021/12/28 06:34:27;;;;;;;31.92;19.10;;;2.20;99.90;;;;;;4912633;29;20263;-67
2021/12/28 06:36:54;;;;;;;29.13;17.85;;;2.20;99.90;;;;;;4916484;29;20214;-68
2021/12/28 06:39:20;;;;;;;31.80;18.60;;;2.20;99.90;;;;;;4909380;29;20732;-69
2021/12/28 06:41:47;;;;;;;27.70;18.33;;;2.20;99.90;;;;;;4902788;29;20314;-68
2021/12/28 06:44:15;;;;;;;38.25;19.67;;;2.20;99.90;;;;;;4909319;29;20254;-71
2021/12/28 06:46:42;;;;;;;27.20;18.42;;;2.20;99.90;;;;;;4894642;29;20207;-69
2021/12/28 06:49:09;;;;;;;25.52;15.75;;;2.20;99.90;;;;;;4900622;29;20274;-68
2021/12/28 06:51:35;;;;;;;27.77;19.08;;;2.20;99.90;;;;;;4913027;29;20230;-68
2021/12/28 06:54:02;;;;;;;27.77;17.00;;;2.20;99.90;;;;;;4911604;29;20588;-69
2021/12/28 06:56:29;;;;;;;26.13;16.85;;;2.20;99.90;;;;;;4894214;29;20211;-69
2021/12/28 06:58:56;;;;;;;26.10;17.52;;;2.20;99.90;;;;;;4907160;29;20230;-69
2021/12/28 07:01:24;;;;;;;25.88;18.25;;;2.20;99.90;;;;;;4895595;29;20704;-69
2021/12/28 07:03:51;;;;;;;31.15;20.02;;;2.20;99.90;;;;;;4907642;29;20229;-69
2021/12/28 07:06:18;;;;;;;29.02;19.45;;;2.10;99.90;;;;;;4914094;29;20638;-68
2021/12/28 07:08:45;;;;;;;17.95;11.98;;;2.10;99.90;;;;;;4912783;29;20278;-67
2021/12/28 07:11:12;;;;;;;30.80;18.40;;;2.10;99.90;;;;;;4922749;29;20230;-68
2021/12/28 07:13:39;;;;;;;28.38;17.55;;;2.10;99.90;;;;;;4919202;29;20210;-68
2021/12/28 07:16:05;;;;;;;29.77;18.98;;;2.10;99.90;;;;;;4916339;29;20734;-68
2021/12/28 07:18:34;;;;;;;30.67;18.40;;;2.10;99.90;;;;;;4902495;29;20298;-68
2021/12/28 07:21:02;;;;;;;27.33;17.13;;;2.10;99.90;;;;;;4897896;29;20231;-69
2021/12/28 07:23:29;;;;;;;31.02;17.30;;;2.10;99.90;;;;;;4910857;29;20202;-68
2021/12/28 07:25:56;;;;;;;33.85;18.88;;;2.10;99.90;;;;;;4915483;29;20274;-69
2021/12/28 07:28:24;;;;;;;35.47;19.27;;;2.00;99.90;;;;;;4912164;29;20649;-68
2021/12/28 07:30:51;;;;;;;31.15;19.15;;;2.00;99.90;;;;;;4915355;29;20719;-68
2021/12/28 07:33:18;;;;;;;33.20;19.17;;;2.10;99.90;;;;;;4905676;29;20219;-69
2021/12/28 07:35:46;;;;;;;30.48;18.58;;;2.10;99.90;;;;;;4901472;29;20218;-68
2021/12/28 07:38:13;;;;;;;29.65;18.60;;;2.00;99.90;;;;;;4897054;29;20727;-68
2021/12/28 07:40:40;;;;;;;30.95;17.48;;;2.00;99.90;;;;;;4913971;29;20282;-68
2021/12/28 07:43:06;;;;;;;32.00;18.63;;;2.00;99.90;;;;;;4911439;29;20665;-68
2021/12/28 07:45:33;;;;;;;31.42;20.25;;;2.00;99.90;;;;;;4910292;29;20254;-68
2021/12/28 07:48:00;;;;;;;32.80;20.63;;;2.00;99.90;;;;;;4896124;29;20207;-68
2021/12/28 07:50:27;;;;;;;32.13;18.85;;;2.00;99.90;;;;;;4896621;29;20203;-68
2021/12/28 07:52:55;;;;;;;33.30;20.30;;;2.00;99.90;;;;;;4917329;29;20219;-68
2021/12/28 07:55:22;;;;;;;29.15;18.60;;;2.00;99.90;;;;;;4905939;29;20290;-69
2021/12/28 07:57:49;;;;;;;32.03;20.52;;;2.00;99.90;;;;;;4902442;29;20926;-69
2021/12/28 08:00:18;;;;;;;37.83;20.08;;;2.00;99.90;;;;;;4898947;29;20215;-69
2021/12/28 08:02:46;;;;;;;35.13;19.45;;;2.00;99.90;;;;;;4921321;29;20211;-68
2021/12/28 08:05:13;;;;;;;29.67;19.35;;;2.00;99.90;;;;;;4906386;29;20262;-68
2021/12/28 08:07:40;;;;;;;38.53;20.55;;;2.00;99.90;;;;;;4915498;29;20206;-69
2021/12/28 08:10:11;;;;;;;34.33;21.90;;;2.00;99.90;;;;;;4911653;29;20281;-69
2021/12/28 08:12:37;;;;;;;37.88;20.65;;;2.00;99.90;;;;;;4912038;29;20646;-68
2021/12/28 08:15:05;;;;;;;37.33;20.60;;;2.00;99.90;;;;;;4909060;29;20295;-70
2021/12/28 08:17:32;;;;;;;33.55;21.15;;;2.00;99.90;;;;;;4901318;29;20203;-68
2021/12/28 08:19:59;;;;;;;31.83;19.90;;;2.00;99.90;;;;;;4899030;29;20223;-68
2021/12/28 08:22:26;;;;;;;32.85;19.35;;;2.00;99.90;;;;;;4896266;29;20849;-68
2021/12/28 08:24:52;;;;;;;36.33;20.15;;;2.00;99.90;;;;;;4910031;29;20587;-68
2021/12/28 08:27:20;;;;;;;40.05;21.27;;;2.00;99.90;;;;;;4911500;29;20207;-68
2021/12/28 08:29:47;;;;;;;31.92;19.23;;;2.00;99.90;;;;;;4914295;29;20203;-68
2021/12/28 08:32:14;;;;;;;32.25;20.13;;;2.00;99.90;;;;;;4914619;29;20254;-69
2021/12/28 08:34:40;;;;;;;40.30;21.02;;;2.00;99.90;;;;;;4904816;29;20266;-69
2021/12/28 08:37:07;;;;;;;34.53;20.23;;;2.00;99.90;;;;;;4895397;29;20203;-68
2021/12/28 08:39:34;;;;;;;35.42;21.00;;;2.00;99.90;;;;;;4907798;29;20222;-68
2021/12/28 08:42:01;;;;;;;21.77;14.52;;;2.00;99.90;;;;;;4901060;29;21782;-69
2021/12/28 08:44:29;;;;;;;38.25;20.02;;;2.10;99.90;;;;;;4901655;29;20286;-70
2021/12/28 08:46:55;;;;;;;33.58;20.45;;;2.10;99.90;;;;;;4912635;29;20207;-69
2021/12/28 08:49:25;;;;;;;35.88;20.90;;;2.10;99.90;;;;;;4906383;29;20211;-70
2021/12/28 08:51:52;;;;;;;29.55;17.85;;;2.10;99.90;;;;;;4895907;29;20239;-69
2021/12/28 08:54:18;;;;;;;30.33;17.27;;;2.10;99.90;;;;;;4897981;29;20263;-69
2021/12/28 08:56:46;;;;;;;33.40;19.95;;;2.10;99.90;;;;;;4903883;29;20203;-69
2021/12/28 08:59:13;;;;;;;41.15;22.02;;;2.10;99.90;;;;;;4905556;29;20238;-69
2021/12/28 09:01:42;;;;;;;39.53;23.70;;;2.10;99.90;;;;;;4906550;29;20613;-70
2021/12/28 09:04:08;;;;;;;38.40;22.13;;;2.10;99.90;;;;;;4919981;29;20214;-69
2021/12/28 09:06:35;;;;;;;37.40;20.88;;;2.10;99.90;;;;;;4929049;29;20210;-69
2021/12/28 09:09:02;;;;;;;39.33;23.50;;;2.10;99.90;;;;;;4913681;29;20262;-69
2021/12/28 09:11:29;;;;;;;31.98;14.68;;;2.10;99.90;;;;;;4893838;29;20234;-69
2021/12/28 09:13:55;;;;;;;40.28;23.08;;;2.20;99.90;;;;;;4895545;29;20282;-69
2021/12/28 09:16:23;;;;;;;35.83;22.05;;;2.20;99.90;;;;;;4895009;29;20233;-69
2021/12/28 09:18:51;;;;;;;36.25;20.60;;;2.20;99.90;;;;;;4907906;29;20274;-69
2021/12/28 09:21:18;;;;;;;40.30;23.17;;;2.20;99.90;;;;;;4910779;29;20459;-70
2021/12/28 09:23:45;;;;;;;36.20;22.85;;;2.20;99.90;;;;;;4901502;29;20208;-68
2021/12/28 09:26:12;;;;;;;37.35;19.27;;;2.20;99.90;;;;;;4920688;29;20218;-69
2021/12/28 09:28:38;;;;;;;45.40;23.65;;;2.20;99.90;;;;;;4895397;29;20214;-69
2021/12/28 09:31:05;;;;;;;35.63;22.20;;;2.20;99.90;;;;;;4898364;29;20723;-69
2021/12/28 09:33:32;;;;;;;41.50;23.23;;;2.20;99.90;;;;;;4913523;29;20310;-69
2021/12/28 09:36:01;;;;;;;37.65;23.90;;;2.30;99.90;;;;;;4902391;29;20206;-69
2021/12/28 09:38:28;;;;;;;28.48;16.98;;;2.30;99.90;;;;;;4920244;29;20269;-69
2021/12/28 09:40:55;;;;;;;39.45;20.45;;;2.30;99.90;;;;;;4897871;29;20549;-69
2021/12/28 09:43:22;;;;;;;46.70;25.20;;;2.30;99.90;;;;;;4903952;29;20207;-69
2021/12/28 09:45:49;;;;;;;37.78;20.02;;;2.30;99.90;;;;;;4932129;23;20230;-70
2021/12/28 09:48:16;;;;;;;34.15;21.48;;;2.30;99.90;;;;;;4908518;29;20643;-71
2021/12/28 09:50:43;;;;;;;31.50;20.20;;;2.40;99.90;;;;;;4899587;29;20210;-70
2021/12/28 09:53:15;;;;;;;41.40;23.35;;;2.40;99.90;;;;;;4903939;29;20207;-71
2021/12/28 09:55:43;;;;;;;39.17;22.60;;;2.40;99.90;;;;;;4895452;29;20313;-71
2021/12/28 09:58:10;;;;;;;24.25;15.32;;;2.40;99.90;;;;;;4913766;29;20211;-71
2021/12/28 10:00:37;;;;;;;30.95;17.80;;;2.50;99.90;;;;;;4913796;29;20206;-71
2021/12/28 10:03:04;;;;;;;35.15;20.88;;;2.50;99.90;;;;;;4913421;29;20336;-71
2021/12/28 10:05:33;;;;;;;36.70;20.45;;;2.50;99.90;;;;;;4914049;29;20615;-71
2021/12/28 10:08:01;;;;;;;32.30;20.58;;;2.50;99.90;;;;;;4903286;29;20213;-71
2021/12/28 10:10:32;;;;;;;40.03;23.02;;;2.50;99.90;;;;;;4907607;29;20636;-71
2021/12/28 10:13:02;;;;;;;42.83;23.10;;;2.50;99.90;;;;;;4914142;29;20301;-71
2021/12/28 10:15:31;;;;;;;32.00;21.05;;;2.50;99.90;;;;;;4912418;29;20234;-71
2021/12/28 10:18:01;;;;;;;36.42;19.27;;;2.50;99.90;;;;;;4911588;29;20207;-72
2021/12/28 10:20:30;;;;;;;41.80;23.10;;;2.50;99.90;;;;;;4912718;29;20321;-71
2021/12/28 10:22:59;;;;;;;41.45;24.02;;;2.50;99.90;;;;;;4913482;29;20223;-71
2021/12/28 10:25:29;;;;;;;44.58;24.25;;;2.50;99.90;;;;;;4911883;29;20317;-71
2021/12/28 10:27:59;;;;;;;43.20;24.63;;;2.50;99.90;;;;;;4914144;29;20210;-70
2021/12/28 10:30:29;;;;;;;39.40;23.85;;;2.50;99.90;;;;;;4912625;29;20897;-70
2021/12/28 10:32:58;;;;;;;42.40;23.80;;;2.60;99.90;;;;;;4912856;29;20615;-70
2021/12/28 10:35:27;;;;;;;38.78;23.65;;;2.60;99.90;;;;;;4913213;29;20577;-70
2021/12/28 10:37:56;;;;;;;37.03;22.20;;;2.60;99.90;;;;;;4899696;29;20214;-71
2021/12/28 10:40:28;;;;;;;36.80;21.60;;;2.60;99.90;;;;;;4907724;29;20249;-70
2021/12/28 10:43:00;;;;;;;42.03;26.75;;;2.70;99.90;;;;;;4897110;29;20258;-70
2021/12/28 10:45:36;;;;;;;37.13;25.23;;;2.70;99.90;;;;;;4902553;29;20246;-70
2021/12/28 10:48:13;;;;;;;42.60;27.05;;;2.70;99.90;;;;;;4899305;29;20215;-71
2021/12/28 10:50:43;;;;;;;42.13;24.15;;;2.70;99.90;;;;;;4907504;29;20217;-71
2021/12/28 10:53:24;;;;;;;45.00;25.55;;;2.70;99.90;;;;;;4912753;29;20215;-70
2021/12/28 10:55:54;;;;;;;43.08;27.08;;;2.70;99.90;;;;;;4904985;29;20455;-71
2021/12/28 10:58:26;;;;;;;41.47;24.40;;;2.60;99.90;;;;;;4900854;29;20202;-70
2021/12/28 11:00:53;;;;;;;43.53;26.38;;;2.70;99.90;;;;;;4916046;29;20219;-70
2021/12/28 11:03:33;;;;;;;42.95;24.88;;;2.70;99.90;;;;;;4913916;29;20217;-70
2021/12/28 11:06:06;;;;;;;42.35;24.10;;;2.70;99.90;;;;;;4913308;29;20237;-70
2021/12/28 11:08:34;;;;;;;46.70;25.35;;;2.70;99.90;;;;;;4912973;29;20672;-70
2021/12/28 11:11:05;;;;;;;43.45;24.48;;;2.70;99.90;;;;;;4912127;29;20262;-70
2021/12/28 11:13:34;;;;;;;44.30;24.08;;;2.70;99.90;;;;;;4913369;29;20310;-70
2021/12/28 11:16:02;;;;;;;36.28;20.65;;;2.70;99.90;;;;;;4913109;29;20321;-69
2021/12/28 11:18:33;;;;;;;43.58;23.92;;;2.70;99.90;;;;;;4915204;29;20207;-69
2021/12/28 11:21:09;;;;;;;49.53;24.75;;;2.70;99.90;;;;;;4913040;29;20215;-69
2021/12/28 11:23:36;;;;;;;36.10;21.52;;;2.70;99.90;;;;;;4909844;29;20205;-71
2021/12/28 11:26:11;;;;;;;37.55;21.48;;;2.80;99.90;;;;;;4909433;29;20234;-71
2021/12/28 11:28:42;;;;;;;40.05;22.45;;;2.80;99.90;;;;;;4911150;29;20218;-69
2021/12/28 11:31:13;;;;;;;38.25;21.08;;;2.80;99.90;;;;;;4910540;29;20226;-71
2021/12/28 11:33:50;;;;;;;43.20;23.85;;;2.80;99.90;;;;;;4912922;29;20218;-70
2021/12/28 11:36:18;;;;;;;39.38;24.48;;;2.80;99.90;;;;;;4921897;29;20229;-71
2021/12/28 11:38:46;;;;;;;19.88;13.85;;;2.80;99.90;;;;;;4909109;29;20230;-70
2021/12/28 11:41:14;;;;;;;34.25;21.50;;;2.80;99.90;;;;;;4921135;29;20238;-71
2021/12/28 11:43:44;;;;;;;35.35;21.20;;;2.90;99.90;;;;;;4923554;29;20214;-71
2021/12/28 11:46:12;;;;;;;40.58;24.58;;;2.90;99.90;;;;;;4916800;29;20262;-71
2021/12/28 11:48:42;;;;;;;42.38;25.02;;;2.90;99.90;;;;;;4916642;29;20840;-71
2021/12/28 11:51:09;;;;;;;35.65;20.08;;;3.00;99.90;;;;;;4917744;29;20233;-70
2021/12/28 11:53:40;;;;;;;40.70;23.13;;;3.00;99.90;;;;;;4912504;29;20207;-70
2021/12/28 11:56:08;;;;;;;42.10;22.20;;;3.00;99.90;;;;;;4910208;29;20298;-71
2021/12/28 11:59:02;;;;;;;41.22;24.20;;;3.00;99.90;;;;;;4916432;29;20210;-71
2021/12/28 12:01:41;;;;;;;43.45;23.60;;;3.00;99.90;;;;;;4914902;29;20203;-71
2021/12/28 12:04:58;;;;;;;35.53;19.52;;;3.00;99.90;;;;;;4916825;29;20206;-70
2021/12/28 12:07:30;;;;;;;38.92;20.45;;;3.00;99.90;;;;;;4917072;29;20199;-71
2021/12/28 12:10:15;;;;;;;31.02;16.30;;;3.10;99.90;;;;;;4914360;29;20206;-71
2021/12/28 12:12:51;;;;;;;41.90;21.52;;;3.10;99.90;;;;;;4916040;29;20671;-71
2021/12/28 12:15:19;;;;;;;31.27;17.00;;;3.10;99.90;;;;;;4917058;29;20227;-70
2021/12/28 12:17:47;;;;;;;37.55;22.30;;;3.10;99.90;;;;;;4901773;29;20315;-70
2021/12/28 12:20:30;;;;;;;41.65;24.13;;;3.10;99.90;;;;;;4907882;29;20235;-70
2021/12/28 12:23:08;;;;;;;37.55;23.17;;;3.10;99.90;;;;;;4915720;29;20260;-70
2021/12/28 12:25:48;;;;;;;35.03;18.75;;;3.10;99.90;;;;;;4914985;29;20602;-70
2021/12/28 12:28:16;;;;;;;41.28;23.58;;;3.10;99.90;;;;;;4911357;29;20301;-70
2021/12/28 12:30:50;;;;;;;41.83;20.85;;;3.10;99.90;;;;;;4915197;29;20234;-70
2021/12/28 12:33:18;;;;;;;43.35;23.13;;;3.20;99.90;;;;;;4916692;29;20621;-70
2021/12/28 12:35:51;;;;;;;43.78;24.73;;;3.20;99.90;;;;;;4915208;29;20234;-70
2021/12/28 12:38:39;;;;;;;40.90;24.65;;;3.20;99.90;;;;;;4914806;29;20207;-70
2021/12/28 12:41:12;;;;;;;40.22;24.05;;;3.30;99.90;;;;;;4915277;29;20322;-70
2021/12/28 12:43:46;;;;;;;37.15;22.98;;;3.30;99.90;;;;;;4915966;29;20207;-71
2021/12/28 12:46:24;;;;;;;42.05;22.10;;;3.30;99.90;;;;;;4922549;29;20241;-70
2021/12/28 12:49:00;;;;;;;40.40;24.23;;;3.30;99.90;;;;;;4931157;29;20210;-71
2021/12/28 12:51:29;;;;;;;42.78;23.98;;;3.30;99.90;;;;;;4916177;29;20620;-70
2021/12/28 12:53:59;;;;;;;41.70;23.45;;;3.30;99.90;;;;;;4915399;29;20202;-71
2021/12/28 12:56:28;;;;;;;29.48;18.55;;;3.30;99.90;;;;;;4905008;29;20272;-70
2021/12/28 12:58:59;;;;;;;38.70;24.63;;;3.30;99.90;;;;;;4910767;29;20290;-71
2021/12/28 13:01:56;;;;;;;32.55;20.50;;;3.30;99.90;;;;;;4915698;29;20244;-71
2021/12/28 13:04:52;;;;;;;37.35;23.98;;;3.30;99.90;;;;;;4915310;29;20536;-71
2021/12/28 13:07:23;;;;;;;39.22;23.52;;;3.30;99.90;;;;;;4914294;29;20211;-71
2021/12/28 13:10:00;;;;;;;36.63;18.25;;;3.30;99.90;;;;;;4914248;29;20286;-71
2021/12/28 13:12:28;;;;;;;47.97;24.65;;;3.30;99.90;;;;;;4915059;29;20221;-71
2021/12/28 13:14:55;;;;;;;35.05;20.85;;;3.30;99.90;;;;;;4914931;29;20207;-71
2021/12/28 13:17:25;;;;;;;38.88;24.33;;;3.30;99.90;;;;;;4915329;29;20218;-71
2021/12/28 13:20:17;;;;;;;40.67;23.48;;;3.30;99.90;;;;;;4914725;29;20246;-71
2021/12/28 13:22:49;;;;;;;40.10;22.25;;;3.30;99.90;;;;;;4895796;29;20215;-71
2021/12/28 13:25:21;;;;;;;36.42;21.63;;;3.30;99.90;;;;;;4903346;29;20249;-71
2021/12/28 13:27:47;;;;;;;43.58;23.73;;;3.30;99.90;;;;;;4905641;29;20584;-71
2021/12/28 13:30:19;;;;;;;42.55;23.23;;;3.40;99.90;;;;;;4896057;29;20206;-71
2021/12/28 13:32:48;;;;;;;35.75;22.55;;;3.40;99.90;;;;;;4895729;29;20207;-71
2021/12/28 13:35:18;;;;;;;33.97;22.25;;;3.40;99.90;;;;;;4899802;29;20235;-72
2021/12/28 13:37:48;;;;;;;42.90;20.00;;;3.40;99.90;;;;;;4916071;29;20202;-72
2021/12/28 13:40:19;;;;;;;35.55;23.67;;;3.40;99.90;;;;;;4911671;29;20215;-72
2021/12/28 13:42:48;;;;;;;30.55;21.83;;;3.50;99.90;;;;;;4913917;29;20211;-72
2021/12/28 13:45:28;;;;;;;45.65;24.70;;;3.40;99.90;;;;;;4914443;29;20309;-71
2021/12/28 13:47:57;;;;;;;36.95;22.40;;;3.50;99.90;;;;;;4913555;29;20448;-72
2021/12/28 13:50:24;;;;;;;33.92;22.38;;;3.50;99.90;;;;;;4928213;29;20199;-71
2021/12/28 13:52:53;;;;;;;39.22;21.85;;;3.50;99.90;;;;;;4932661;29;20272;-72
2021/12/28 13:55:26;;;;;;;38.60;20.98;;;3.50;99.90;;;;;;4915709;29;20222;-71
2021/12/28 13:57:52;;;;;;;28.85;19.33;;;3.50;99.90;;;;;;4920167;29;20210;-71
2021/12/28 14:00:23;;;;;;;34.60;20.65;;;3.50;99.90;;;;;;4914150;29;20687;-72
2021/12/28 14:03:00;;;;;;;38.97;22.23;;;3.50;99.90;;;;;;4914387;29;20292;-71
2021/12/28 14:05:27;;;;;;;36.85;21.58;;;3.50;99.90;;;;;;4913970;29;20236;-71
2021/12/28 14:07:55;;;;;;;34.65;22.70;;;3.50;99.90;;;;;;4913675;29;20218;-71
2021/12/28 14:10:22;;;;;;;32.70;21.70;;;3.50;99.90;;;;;;4914384;29;20222;-71
2021/12/28 14:13:04;;;;;;;36.78;21.48;;;3.50;99.90;;;;;;4913591;29;20225;-71
2021/12/28 14:15:31;;;;;;;32.90;21.50;;;3.50;99.90;;;;;;4913516;29;20309;-71
2021/12/28 14:17:59;;;;;;;31.77;22.10;;;3.50;99.90;;;;;;4902378;29;20753;-71
2021/12/28 14:20:30;;;;;;;30.08;21.60;;;3.50;99.90;;;;;;4911838;29;20286;-71
2021/12/28 14:22:57;;;;;;;44.42;23.25;;;3.50;99.90;;;;;;4911916;29;20211;-71
2021/12/28 14:25:24;;;;;;;30.52;21.10;;;3.50;99.90;;;;;;4914266;29;20226;-71
2021/12/28 14:27:58;;;;;;;32.22;20.23;;;3.50;99.90;;;;;;4913727;29;20218;-72
2021/12/28 14:30:26;;;;;;;32.90;19.15;;;3.50;99.90;;;;;;4914335;29;20242;-71
2021/12/28 14:32:53;;;;;;;30.23;19.77;;;3.50;99.90;;;;;;4914402;29;20211;-71
2021/12/28 14:35:29;;;;;;;29.77;20.77;;;3.50;99.90;;;;;;4914012;29;20226;-71
2021/12/28 14:37:56;;;;;;;21.75;15.07;;;3.50;99.90;;;;;;4912735;29;20726;-71
2021/12/28 14:40:27;;;;;;;25.65;18.15;;;3.50;99.90;;;;;;4913215;29;20234;-71
2021/12/28 14:42:55;;;;;;;26.70;19.77;;;3.50;99.90;;;;;;4913017;29;20301;-71
2021/12/28 14:45:26;;;;;;;32.78;18.50;;;3.50;99.90;;;;;;4912676;29;20242;-71
2021/12/28 14:47:53;;;;;;;34.78;17.75;;;3.50;99.90;;;;;;4913462;29;20498;-71
2021/12/28 14:50:24;;;;;;;29.45;19.08;;;3.50;99.90;;;;;;4913367;29;20199;-71
2021/12/28 14:52:53;;;;;;;24.67;17.55;;;3.50;99.90;;;;;;4914570;29;20214;-71
2021/12/28 14:55:27;;;;;;;29.77;18.38;;;3.50;99.90;;;;;;4923683;29;20302;-71
2021/12/28 14:57:56;;;;;;;25.60;17.85;;;3.50;99.90;;;;;;4908370;29;20199;-71
2021/12/28 15:00:27;;;;;;;31.00;17.20;;;3.50;99.90;;;;;;4913247;29;20250;-72
2021/12/28 15:02:57;;;;;;;26.92;18.02;;;3.60;99.90;;;;;;4913516;29;20214;-72
2021/12/28 15:05:28;;;;;;;32.72;18.15;;;3.50;99.90;;;;;;4913932;29;20238;-72
2021/12/28 15:08:02;;;;;;;28.38;18.98;;;3.60;99.90;;;;;;4913007;29;20202;-72
2021/12/28 15:10:29;;;;;;;33.25;19.90;;;3.60;99.90;;;;;;4913082;29;20279;-71
2021/12/28 15:13:00;;;;;;;29.30;18.40;;;3.60;99.90;;;;;;4912966;29;20213;-71
2021/12/28 15:15:28;;;;;;;30.60;18.70;;;3.60;99.90;;;;;;4913456;29;20227;-71
2021/12/28 15:17:55;;;;;;;29.15;19.83;;;3.60;99.90;;;;;;4913305;29;20568;-71
2021/12/28 15:20:22;;;;;;;24.15;16.20;;;3.60;99.90;;;;;;4913308;29;20329;-71
2021/12/28 15:22:51;;;;;;;25.13;17.17;;;3.60;99.90;;;;;;4913130;29;20206;-71
2021/12/28 15:25:21;;;;;;;19.92;13.38;;;3.60;99.90;;;;;;4913357;29;20313;-71
2021/12/28 15:27:47;;;;;;;21.77;15.38;;;3.60;99.90;;;;;;4912298;29;20278;-71
2021/12/28 15:30:17;;;;;;;26.70;18.05;;;3.60;99.90;;;;;;4912933;29;20218;-71
2021/12/28 15:32:47;;;;;;;23.08;16.45;;;3.60;99.90;;;;;;4916895;29;20215;-71
2021/12/28 15:35:15;;;;;;;28.67;16.67;;;3.70;99.90;;;;;;4916271;29;20613;-71
2021/12/28 15:37:41;;;;;;;24.15;15.65;;;3.70;99.90;;;;;;4915446;29;20214;-71
2021/12/28 15:40:12;;;;;;;21.65;15.85;;;3.70;99.90;;;;;;4916268;29;20237;-71
2021/12/28 15:42:39;;;;;;;27.13;15.40;;;3.70;99.90;;;;;;4916395;29;20258;-70
2021/12/28 15:45:07;;;;;;;25.50;17.48;;;3.80;99.90;;;;;;4911261;29;20255;-71
2021/12/28 15:47:33;;;;;;;26.73;15.85;;;3.80;99.90;;;;;;4933298;23;20293;-68
2021/12/28 15:50:00;;;;;;;27.35;16.17;;;3.80;99.90;;;;;;4928447;29;20218;-68
2021/12/28 15:52:27;;;;;;;28.70;17.88;;;3.80;99.90;;;;;;4933902;29;20222;-67
2021/12/28 15:54:54;;;;;;;23.15;16.67;;;3.80;99.90;;;;;;4930861;29;20210;-68
2021/12/28 15:57:22;;;;;;;29.83;17.35;;;3.80;99.90;;;;;;4935805;29;20590;-69
2021/12/28 15:59:48;;;;;;;30.13;17.08;;;3.80;99.90;;;;;;4933461;28;20218;-68
2021/12/28 16:02:15;;;;;;;28.67;17.92;;;3.80;99.90;;;;;;4925624;29;20234;-68
2021/12/28 16:04:42;;;;;;;28.48;18.15;;;3.80;99.90;;;;;;4935947;28;20308;-70
2021/12/28 16:07:09;;;;;;;32.25;19.08;;;3.80;99.90;;;;;;4937290;28;20341;-70
2021/12/28 16:09:36;;;;;;;30.60;19.50;;;3.80;99.90;;;;;;4934555;29;20584;-69
2021/12/28 16:12:03;;;;;;;23.85;16.58;;;3.80;99.90;;;;;;4915521;29;20233;-69
2021/12/28 16:14:32;;;;;;;26.20;18.27;;;3.80;99.90;;;;;;4916177;29;20258;-69
2021/12/28 16:17:00;;;;;;;29.50;17.15;;;3.80;99.90;;;;;;4920274;29;20317;-68
2021/12/28 16:19:27;;;;;;;25.23;17.02;;;3.80;99.90;;;;;;4938960;29;20808;-69
2021/12/28 16:21:54;;;;;;;34.08;20.63;;;3.80;99.90;;;;;;4920009;29;20287;-68
2021/12/28 16:24:21;;;;;;;24.15;18.63;;;3.80;99.90;;;;;;4921751;29;20261;-70
2021/12/28 16:26:48;;;;;;;26.20;17.73;;;3.80;99.90;;;;;;4927890;29;20199;-68
2021/12/28 16:29:15;;;;;;;28.48;18.27;;;3.80;99.90;;;;;;4941820;29;20580;-69
2021/12/28 16:31:43;;;;;;;22.30;17.23;;;3.80;99.90;;;;;;4933858;29;20202;-69
2021/12/28 16:34:11;;;;;;;25.65;19.30;;;3.80;99.90;;;;;;4915370;29;20211;-70
2021/12/28 16:36:41;;;;;;;29.75;17.85;;;3.80;99.90;;;;;;4915061;29;20289;-71
2021/12/28 16:39:09;;;;;;;23.42;16.13;;;3.80;99.90;;;;;;4931637;29;20309;-69
2021/12/28 16:41:36;;;;;;;26.27;18.70;;;3.80;99.90;;;;;;4919687;29;20225;-70
2021/12/28 16:44:03;;;;;;;33.17;19.15;;;3.80;99.90;;;;;;4927663;29;20209;-70
2021/12/28 16:46:30;;;;;;;27.65;19.27;;;3.80;99.90;;;;;;4933912;28;20715;-70
2021/12/28 16:48:59;;;;;;;26.90;19.55;;;3.80;99.90;;;;;;4933942;29;20251;-69
2021/12/28 16:51:26;;;;;;;26.35;16.55;;;3.80;99.90;;;;;;4915112;29;20736;-70
2021/12/28 16:53:53;;;;;;;25.73;17.95;;;3.80;99.90;;;;;;4937466;29;20221;-69
2021/12/28 16:56:20;;;;;;;27.10;18.20;;;3.80;99.90;;;;;;4927299;29;20217;-68
2021/12/28 16:58:47;;;;;;;31.08;18.70;;;3.80;99.90;;;;;;4933187;29;20229;-68
2021/12/28 17:01:16;;;;;;;31.52;19.10;;;3.80;99.90;;;;;;4932686;29;20230;-69
2021/12/28 17:03:45;;;;;;;26.50;17.00;;;3.80;99.90;;;;;;4921259;29;20298;-68
2021/12/28 17:06:13;;;;;;;27.45;19.48;;;3.80;99.90;;;;;;4914482;29;20825;-69
2021/12/28 17:08:40;;;;;;;29.70;19.02;;;3.90;99.90;;;;;;4936485;29;20307;-69
2021/12/28 17:11:07;;;;;;;33.72;20.05;;;3.80;99.90;;;;;;4930591;28;20226;-68
2021/12/28 17:13:33;;;;;;;32.20;19.67;;;3.80;99.90;;;;;;4940807;29;20553;-69
2021/12/28 17:16:00;;;;;;;32.30;19.30;;;3.80;99.90;;;;;;4922912;29;20323;-69
2021/12/28 17:18:27;;;;;;;25.58;18.67;;;3.80;99.90;;;;;;4914876;29;20233;-69
2021/12/28 17:20:54;;;;;;;30.35;17.20;;;3.80;99.90;;;;;;4931415;29;20232;-68
2021/12/28 17:23:22;;;;;;;31.80;17.58;;;3.80;99.90;;;;;;4931483;28;20229;-68
2021/12/28 17:25:48;;;;;;;31.73;17.48;;;3.80;99.90;;;;;;4913264;29;20470;-69
2021/12/28 17:28:15;;;;;;;34.45;20.42;;;3.80;99.90;;;;;;4914543;29;20226;-69
2021/12/28 17:30:42;;;;;;;33.30;18.85;;;3.80;99.90;;;;;;4914384;29;20310;-69
2021/12/28 17:33:09;;;;;;;30.75;17.73;;;3.80;99.90;;;;;;4915205;29;20210;-70
2021/12/28 17:35:36;;;;;;;33.42;18.25;;;3.80;99.90;;;;;;4915139;29;20301;-69
2021/12/28 17:38:04;;;;;;;29.75;19.60;;;3.80;99.90;;;;;;4921113;29;20733;-69
2021/12/28 17:40:34;;;;;;;33.40;17.05;;;3.70;99.90;;;;;;4940975;29;20205;-67
2021/12/28 17:43:01;;;;;;;32.53;19.27;;;3.80;99.90;;;;;;4918054;28;20218;-69
2021/12/28 17:45:28;;;;;;;28.70;17.10;;;3.70;99.90;;;;;;4920311;29;20237;-69